Time;durP1;ratioP1;P1;durP2;ratioP2;P2;SDS_P1;SDS_P2;PMS_P1;PMS_P2;Temp;Humidity;BMP_temperature;BMP_pressure;BME280_temperature;BME280_humidity;BME280_pressure;Samples;Min_cycle;Max_cycle;Signal;HPM_P1;HPM_P2
2023/11/26 00:00:05;;;;;;;5.50;2.30;;;4.40;99.90;;;;;;4975097;28;20039;-78
2023/11/26 00:02:30;;;;;;;2.90;2.35;;;4.50;99.90;;;;;;4958762;28;20049;-78
2023/11/26 00:04:56;;;;;;;6.60;2.38;;;4.40;99.90;;;;;;4974559;28;20038;-78
2023/11/26 00:07:21;;;;;;;2.72;2.03;;;4.50;99.90;;;;;;4974742;28;20039;-78
2023/11/26 00:09:47;;;;;;;6.07;2.50;;;4.50;99.90;;;;;;4974631;28;20038;-79
2023/11/26 00:12:13;;;;;;;5.85;2.10;;;4.60;99.90;;;;;;4974658;28;20046;-78
2023/11/26 00:14:39;;;;;;;2.25;1.65;;;4.70;99.90;;;;;;4973950;28;20074;-79
2023/11/26 00:17:05;;;;;;;6.55;2.00;;;4.60;99.90;;;;;;4974392;28;20125;-78
2023/11/26 00:19:33;;;;;;;3.75;1.85;;;4.60;99.90;;;;;;4958153;28;20050;-78
2023/11/26 00:21:58;;;;;;;4.60;2.22;;;4.60;99.90;;;;;;4974293;28;20085;-78
2023/11/26 00:24:24;;;;;;;4.68;2.03;;;4.50;99.90;;;;;;4958564;28;20082;-78
2023/11/26 00:26:50;;;;;;;4.20;1.70;;;4.60;99.90;;;;;;4974179;28;20054;-79
2023/11/26 00:29:15;;;;;;;3.92;2.10;;;4.70;99.90;;;;;;4973971;28;20043;-79
2023/11/26 00:31:41;;;;;;;4.85;2.30;;;4.50;99.90;;;;;;4976557;28;20054;-78
2023/11/26 00:34:07;;;;;;;6.15;2.05;;;4.50;99.90;;;;;;4962350;28;20041;-79
2023/11/26 00:36:33;;;;;;;3.55;1.92;;;4.50;99.90;;;;;;4978019;28;20413;-79
2023/11/26 00:38:58;;;;;;;5.47;2.20;;;4.30;99.90;;;;;;4977078;28;20039;-78
2023/11/26 00:41:24;;;;;;;7.15;1.90;;;4.40;99.90;;;;;;4975212;28;20510;-79
2023/11/26 00:43:50;;;;;;;3.60;1.88;;;4.30;99.90;;;;;;4975229;28;20074;-78
2023/11/26 00:46:16;;;;;;;5.47;2.00;;;4.30;99.90;;;;;;4959588;28;20075;-78
2023/11/26 00:48:42;;;;;;;4.35;1.50;;;4.20;99.90;;;;;;4958274;28;20037;-78
2023/11/26 00:51:08;;;;;;;2.38;1.60;;;4.40;99.90;;;;;;4973094;28;20067;-78
2023/11/26 00:53:34;;;;;;;3.20;1.45;;;4.40;99.90;;;;;;4974577;28;20066;-78
2023/11/26 00:56:00;;;;;;;3.90;1.60;;;4.20;99.90;;;;;;4973819;28;20046;-78
2023/11/26 00:58:26;;;;;;;3.92;1.77;;;4.50;99.90;;;;;;4974322;28;20125;-78
2023/11/26 01:00:52;;;;;;;5.68;2.35;;;4.30;99.90;;;;;;4974131;28;20081;-78
2023/11/26 01:03:21;;;;;;;4.28;2.15;;;4.50;99.90;;;;;;4973809;28;20043;-78
2023/11/26 01:05:47;;;;;;;3.70;2.03;;;4.50;99.90;;;;;;4973807;28;20043;-78
2023/11/26 01:08:14;;;;;;;6.10;2.80;;;4.50;99.90;;;;;;4973746;28;20050;-78
2023/11/26 01:10:39;;;;;;;3.67;1.80;;;4.60;99.90;;;;;;4973864;28;20050;-78
2023/11/26 01:13:06;;;;;;;4.80;1.52;;;4.70;99.90;;;;;;4973699;28;20514;-78
2023/11/26 01:15:33;;;;;;;2.92;1.23;;;4.50;99.90;;;;;;4973796;28;20046;-78
2023/11/26 01:17:59;;;;;;;2.67;1.60;;;4.70;99.90;;;;;;4992716;28;20123;-79
2023/11/26 01:20:24;;;;;;;3.03;1.30;;;4.50;99.90;;;;;;4993024;28;20035;-79
2023/11/26 01:22:50;;;;;;;2.90;1.65;;;4.60;99.90;;;;;;4994436;28;20042;-79
2023/11/26 01:25:16;;;;;;;4.75;1.58;;;4.50;99.90;;;;;;4993798;28;20046;-79
2023/11/26 01:27:41;;;;;;;6.03;1.50;;;4.50;99.90;;;;;;4979708;28;20106;-80
2023/11/26 01:30:09;;;;;;;5.18;2.42;;;4.40;99.90;;;;;;5012252;23;20370;-75
2023/11/26 01:32:35;;;;;;;3.78;1.70;;;4.40;99.90;;;;;;4995532;28;20045;-75
2023/11/26 01:35:02;;;;;;;3.72;1.98;;;4.30;99.90;;;;;;5012803;28;20477;-75
2023/11/26 01:37:28;;;;;;;2.05;1.48;;;4.40;99.90;;;;;;5011716;28;20504;-75
2023/11/26 01:39:54;;;;;;;4.53;1.83;;;4.60;99.90;;;;;;5011498;28;20497;-75
2023/11/26 01:42:20;;;;;;;6.78;1.50;;;4.40;99.90;;;;;;4994829;28;20104;-75
2023/11/26 01:44:46;;;;;;;4.07;1.52;;;4.40;99.90;;;;;;5011161;28;20041;-75
2023/11/26 01:47:13;;;;;;;5.30;1.45;;;4.40;99.90;;;;;;5011236;28;20034;-75
2023/11/26 01:49:39;;;;;;;4.13;1.50;;;4.20;99.90;;;;;;5011441;28;20501;-74
2023/11/26 01:52:11;;;;;;;2.55;1.30;;;4.40;99.90;;;;;;5011402;28;20083;-74
2023/11/26 01:54:38;;;;;;;3.30;1.35;;;4.30;99.90;;;;;;5011288;28;20045;-74
2023/11/26 01:57:05;;;;;;;6.50;2.83;;;4.40;99.90;;;;;;5010999;28;20398;-74
2023/11/26 01:59:31;;;;;;;3.33;1.40;;;4.50;99.90;;;;;;5011242;28;20049;-75
2023/11/26 02:01:57;;;;;;;3.03;1.20;;;4.20;99.90;;;;;;5011303;28;20056;-75
2023/11/26 02:04:23;;;;;;;7.53;1.42;;;4.40;99.90;;;;;;5011423;28;20042;-75
2023/11/26 02:06:53;;;;;;;5.75;1.70;;;4.40;99.90;;;;;;5011033;28;20046;-75
2023/11/26 02:09:19;;;;;;;6.88;1.55;;;4.40;99.90;;;;;;5011027;28;20497;-75
2023/11/26 02:11:48;;;;;;;5.10;2.10;;;4.50;99.90;;;;;;5010949;28;20048;-75
2023/11/26 02:14:15;;;;;;;9.70;2.28;;;4.40;99.90;;;;;;5011330;28;20564;-75
2023/11/26 02:16:49;;;;;;;6.68;1.70;;;4.30;99.90;;;;;;5010768;28;20122;-75
2023/11/26 02:19:25;;;;;;;6.25;1.50;;;4.40;99.90;;;;;;5012328;28;20077;-74
2023/11/26 02:21:52;;;;;;;3.08;1.77;;;4.20;99.90;;;;;;5011011;28;20139;-74
2023/11/26 02:24:28;;;;;;;5.75;1.98;;;4.30;99.90;;;;;;4994761;28;20041;-75
2023/11/26 02:26:54;;;;;;;6.65;2.65;;;4.40;99.90;;;;;;5010939;28;20508;-75
2023/11/26 02:29:21;;;;;;;7.63;1.92;;;4.30;99.90;;;;;;5010904;28;20041;-75
2023/11/26 02:31:47;;;;;;;5.43;2.40;;;4.40;99.90;;;;;;5010940;28;20398;-74
2023/11/26 02:34:13;;;;;;;5.55;2.10;;;4.50;99.90;;;;;;5010835;28;20065;-75
2023/11/26 02:36:38;;;;;;;3.95;1.83;;;4.30;99.90;;;;;;4993953;28;20409;-75
2023/11/26 02:39:04;;;;;;;5.40;2.40;;;4.30;99.90;;;;;;5010686;28;20046;-75
2023/11/26 02:41:31;;;;;;;5.93;2.53;;;4.50;99.90;;;;;;5010674;28;20525;-75
2023/11/26 02:43:56;;;;;;;3.60;2.20;;;4.50;99.90;;;;;;5010733;28;20501;-75
2023/11/26 02:46:22;;;;;;;3.90;2.05;;;4.40;99.90;;;;;;5010444;28;20096;-75
2023/11/26 02:48:48;;;;;;;4.55;2.00;;;4.50;99.90;;;;;;4994504;28;20030;-75
2023/11/26 02:51:13;;;;;;;7.28;2.83;;;4.30;99.90;;;;;;5010502;28;20057;-74
2023/11/26 02:53:39;;;;;;;7.85;2.15;;;4.30;99.90;;;;;;5010811;28;20037;-74
2023/11/26 02:56:05;;;;;;;6.70;2.00;;;4.40;99.90;;;;;;5006365;28;20034;-75
2023/11/26 02:58:31;;;;;;;4.80;1.85;;;4.30;99.90;;;;;;5006565;28;20124;-75
2023/11/26 03:00:57;;;;;;;4.45;2.13;;;4.50;99.90;;;;;;5007611;28;20621;-75
2023/11/26 03:03:22;;;;;;;7.30;2.95;;;4.30;99.90;;;;;;5006287;28;20037;-74
2023/11/26 03:05:50;;;;;;;7.28;2.20;;;4.50;99.90;;;;;;5003177;28;20037;-74
2023/11/26 03:08:21;;;;;;;8.05;2.55;;;4.30;99.90;;;;;;5011584;28;20053;-74
2023/11/26 03:13:35;;;;;;;3.92;1.92;;;4.30;99.90;;;;;;5010449;28;20042;-75
2023/11/26 03:16:03;;;;;;;4.00;2.47;;;4.30;99.90;;;;;;5010141;28;20046;-74
2023/11/26 03:18:29;;;;;;;4.07;1.63;;;4.20;99.90;;;;;;5011599;28;20049;-74
2023/11/26 03:20:56;;;;;;;5.20;2.20;;;4.30;99.90;;;;;;5009681;28;20042;-74
2023/11/26 03:23:24;;;;;;;3.67;2.10;;;4.20;99.90;;;;;;5002203;28;20045;-74
2023/11/26 03:25:51;;;;;;;3.15;1.73;;;4.00;99.90;;;;;;5010126;28;20104;-74
2023/11/26 03:28:17;;;;;;;6.47;2.25;;;4.20;99.90;;;;;;5010272;28;20052;-74
2023/11/26 03:30:43;;;;;;;6.05;2.00;;;4.20;99.90;;;;;;5010196;28;20056;-74
2023/11/26 03:33:14;;;;;;;3.90;1.88;;;4.00;99.90;;;;;;5011481;28;20109;-74
2023/11/26 03:35:40;;;;;;;6.78;2.00;;;4.10;99.90;;;;;;5009986;28;20041;-74
2023/11/26 03:38:06;;;;;;;3.38;2.25;;;4.20;99.90;;;;;;5010269;28;20117;-73
2023/11/26 03:40:31;;;;;;;4.22;1.85;;;4.00;99.90;;;;;;4993898;28;20621;-74
2023/11/26 03:42:57;;;;;;;4.15;2.00;;;4.20;99.90;;;;;;5010224;28;20469;-74
2023/11/26 03:45:22;;;;;;;7.45;2.22;;;4.00;99.90;;;;;;5009793;28;20096;-74
2023/11/26 03:47:48;;;;;;;4.00;2.38;;;4.20;99.90;;;;;;5010033;28;20498;-74
2023/11/26 03:50:14;;;;;;;8.30;2.90;;;4.10;99.90;;;;;;5012727;28;20413;-74
2023/11/26 03:52:40;;;;;;;4.75;2.35;;;4.00;99.90;;;;;;5013904;28;20057;-75
2023/11/26 03:55:06;;;;;;;5.63;2.00;;;4.00;99.90;;;;;;5013374;28;20691;-75
2023/11/26 03:57:32;;;;;;;5.47;2.00;;;4.10;99.90;;;;;;5013453;28;20050;-73
2023/11/26 03:59:59;;;;;;;9.00;2.83;;;4.00;99.90;;;;;;5014530;28;20417;-74
2023/11/26 04:02:25;;;;;;;5.53;1.95;;;4.00;99.90;;;;;;5013282;28;20053;-74
2023/11/26 04:04:51;;;;;;;6.22;2.22;;;4.20;99.90;;;;;;4996995;28;20045;-74
2023/11/26 04:07:18;;;;;;;8.18;2.38;;;4.10;99.90;;;;;;5013331;28;20413;-74
2023/11/26 04:09:45;;;;;;;6.15;2.17;;;4.10;99.90;;;;;;5007273;28;20102;-74
2023/11/26 04:12:11;;;;;;;6.53;2.30;;;4.10;99.90;;;;;;4977368;28;20070;-74
2023/11/26 04:14:39;;;;;;;6.15;2.45;;;4.20;99.90;;;;;;4993792;28;20077;-74
2023/11/26 04:17:05;;;;;;;7.30;2.70;;;4.10;99.90;;;;;;4993338;28;20493;-74
2023/11/26 04:19:30;;;;;;;10.00;2.30;;;4.10;99.90;;;;;;4977560;28;20073;-75
2023/11/26 04:21:56;;;;;;;8.57;3.33;;;4.10;99.90;;;;;;4993424;28;20054;-75
2023/11/26 04:24:21;;;;;;;6.97;2.50;;;4.10;99.90;;;;;;4994745;28;20121;-75
2023/11/26 04:26:47;;;;;;;5.47;2.53;;;4.30;99.90;;;;;;4993119;28;20034;-75
2023/11/26 04:29:13;;;;;;;7.18;3.10;;;4.10;99.90;;;;;;4993196;28;20564;-74
2023/11/26 04:31:39;;;;;;;14.82;2.40;;;4.30;99.90;;;;;;5002813;28;20058;-74
2023/11/26 04:34:05;;;;;;;6.85;3.00;;;4.30;99.90;;;;;;4996778;28;20060;-75
2023/11/26 04:36:33;;;;;;;5.68;2.17;;;4.10;99.90;;;;;;5012545;28;20038;-75
2023/11/26 04:38:59;;;;;;;5.35;2.42;;;4.00;99.90;;;;;;5012786;28;20170;-74
2023/11/26 04:41:26;;;;;;;6.22;2.17;;;4.20;99.90;;;;;;5012658;28;20161;-75
2023/11/26 04:43:51;;;;;;;5.25;2.28;;;4.10;99.90;;;;;;5012592;28;20073;-75
2023/11/26 04:46:17;;;;;;;8.40;2.28;;;4.20;99.90;;;;;;5012314;28;20449;-75
2023/11/26 04:48:43;;;;;;;7.55;3.03;;;4.00;99.90;;;;;;5012518;28;20091;-75
2023/11/26 04:51:09;;;;;;;6.70;3.42;;;4.20;99.90;;;;;;4996255;28;20046;-75
2023/11/26 04:53:36;;;;;;;6.80;2.63;;;4.10;99.90;;;;;;5012587;28;20168;-74
2023/11/26 04:56:03;;;;;;;7.47;2.50;;;3.90;99.90;;;;;;5012271;28;20038;-75
2023/11/26 04:58:28;;;;;;;6.40;2.15;;;4.10;99.90;;;;;;5012455;28;20120;-75
2023/11/26 05:00:54;;;;;;;3.65;1.60;;;3.90;99.90;;;;;;5012488;28;20188;-75
2023/11/26 05:03:22;;;;;;;4.50;2.20;;;3.80;99.90;;;;;;5012265;28;20045;-75
2023/11/26 05:05:51;;;;;;;6.00;2.20;;;3.90;99.90;;;;;;5012154;28;20049;-75
2023/11/26 05:08:17;;;;;;;6.15;2.38;;;3.80;99.90;;;;;;5012380;28;20093;-75
2023/11/26 05:10:42;;;;;;;4.47;2.97;;;4.00;99.90;;;;;;5012340;28;20048;-75
2023/11/26 05:13:09;;;;;;;10.05;2.45;;;3.90;99.90;;;;;;5012075;28;20126;-75
2023/11/26 05:15:36;;;;;;;8.13;1.88;;;4.00;99.90;;;;;;5012043;28;20038;-74
2023/11/26 05:18:01;;;;;;;5.13;1.90;;;3.80;99.90;;;;;;4995683;28;20524;-74
2023/11/26 05:20:27;;;;;;;5.25;2.00;;;4.00;99.90;;;;;;5011854;28;20125;-74
2023/11/26 05:22:56;;;;;;;3.85;2.00;;;3.80;99.90;;;;;;4995629;28;20044;-75
2023/11/26 05:25:22;;;;;;;5.57;1.77;;;4.00;99.90;;;;;;5011777;28;20386;-75
2023/11/26 05:27:48;;;;;;;6.22;2.78;;;4.00;99.90;;;;;;5012096;28;20104;-74
2023/11/26 05:30:13;;;;;;;8.05;2.25;;;4.10;99.90;;;;;;5011564;28;20037;-75
2023/11/26 05:32:40;;;;;;;4.88;1.75;;;4.00;99.90;;;;;;5011756;28;20050;-75
2023/11/26 05:35:12;;;;;;;3.53;2.35;;;3.90;99.90;;;;;;5011585;28;20049;-75
2023/11/26 05:37:41;;;;;;;4.70;2.72;;;4.20;99.90;;;;;;5011978;28;20060;-74
2023/11/26 05:40:10;;;;;;;3.05;1.88;;;4.00;99.90;;;;;;5011475;28;20703;-75
2023/11/26 05:42:36;;;;;;;5.30;2.28;;;4.00;99.90;;;;;;5011844;28;20073;-75
2023/11/26 05:45:02;;;;;;;6.07;1.83;;;4.00;99.90;;;;;;4995289;28;20038;-75
2023/11/26 05:47:28;;;;;;;6.82;2.20;;;4.00;99.90;;;;;;4995036;28;20041;-74
2023/11/26 05:49:53;;;;;;;8.05;1.98;;;4.10;99.90;;;;;;5011288;28;20045;-75
2023/11/26 05:52:19;;;;;;;3.45;1.45;;;4.20;99.90;;;;;;5011744;28;20391;-75
2023/11/26 05:54:45;;;;;;;4.22;1.70;;;4.10;99.90;;;;;;5011329;28;20041;-75
2023/11/26 05:57:11;;;;;;;7.13;1.95;;;4.10;99.90;;;;;;5011121;28;20092;-74
2023/11/26 05:59:37;;;;;;;4.50;1.83;;;4.30;99.90;;;;;;5011279;28;20506;-75
2023/11/26 06:02:03;;;;;;;2.95;1.92;;;4.30;99.90;;;;;;5012432;28;20485;-75
2023/11/26 06:04:29;;;;;;;5.10;1.75;;;4.10;99.90;;;;;;5011168;28;20042;-75
2023/11/26 06:06:54;;;;;;;6.18;1.35;;;4.00;99.90;;;;;;5010984;28;20088;-74
2023/11/26 06:09:21;;;;;;;3.80;1.60;;;4.30;99.90;;;;;;5011090;28;20560;-75
2023/11/26 06:11:47;;;;;;;11.48;2.70;;;4.00;99.90;;;;;;5010586;28;20133;-75
2023/11/26 06:14:13;;;;;;;7.95;1.77;;;4.10;99.90;;;;;;5011128;28;20065;-75
2023/11/26 06:16:41;;;;;;;7.22;1.83;;;4.10;99.90;;;;;;5010723;28;20033;-75
2023/11/26 06:19:07;;;;;;;3.67;1.45;;;4.20;99.90;;;;;;5011051;28;20038;-75
2023/11/26 06:21:33;;;;;;;4.18;1.55;;;4.20;99.90;;;;;;5010828;28;20091;-75
2023/11/26 06:23:58;;;;;;;4.75;1.75;;;4.30;99.90;;;;;;5012119;28;20038;-75
2023/11/26 06:26:24;;;;;;;4.88;1.35;;;4.30;99.90;;;;;;5010610;28;20038;-74
2023/11/26 06:28:50;;;;;;;5.20;1.42;;;4.20;99.90;;;;;;5010969;28;20041;-74
2023/11/26 06:31:20;;;;;;;19.58;2.97;;;4.30;99.90;;;;;;5011972;28;20053;-74
2023/11/26 06:33:46;;;;;;;5.55;1.63;;;4.40;99.90;;;;;;4994666;28;20092;-74
2023/11/26 06:36:23;;;;;;;4.88;1.20;;;4.50;99.90;;;;;;5010442;28;20065;-74
2023/11/26 06:38:55;;;;;;;6.25;1.10;;;4.50;99.90;;;;;;5010769;28;20042;-74
2023/11/26 06:41:23;;;;;;;2.80;0.82;;;4.60;99.90;;;;;;5010958;28;20378;-75
2023/11/26 06:43:50;;;;;;;4.45;0.70;;;4.50;99.90;;;;;;5010931;28;20176;-74
2023/11/26 06:46:19;;;;;;;5.85;1.08;;;4.50;99.90;;;;;;5010399;28;20041;-74
2023/11/26 06:48:45;;;;;;;5.57;1.15;;;4.60;99.90;;;;;;5010572;28;20460;-75
2023/11/26 06:51:13;;;;;;;2.90;0.95;;;4.70;99.90;;;;;;5010680;28;20121;-74
2023/11/26 06:53:39;;;;;;;2.17;0.77;;;4.50;99.90;;;;;;5010959;28;20393;-74
2023/11/26 06:56:05;;;;;;;4.68;1.25;;;4.60;99.90;;;;;;5010380;28;20045;-75
2023/11/26 06:58:35;;;;;;;4.07;0.88;;;4.70;99.90;;;;;;5010550;28;20072;-74
2023/11/26 07:01:01;;;;;;;5.68;1.00;;;4.50;99.90;;;;;;5010430;28;20121;-75
2023/11/26 07:03:26;;;;;;;4.55;0.90;;;4.60;99.90;;;;;;5011674;28;20045;-74
2023/11/26 07:05:52;;;;;;;6.80;1.45;;;4.70;99.90;;;;;;5010450;28;20073;-74
2023/11/26 07:08:17;;;;;;;5.55;1.95;;;4.70;99.90;;;;;;4994341;28;20048;-74
2023/11/26 07:10:43;;;;;;;3.17;1.35;;;4.60;99.90;;;;;;5011775;28;20096;-74
2023/11/26 07:13:10;;;;;;;3.88;1.80;;;4.60;99.90;;;;;;5011739;28;20048;-75
2023/11/26 07:15:37;;;;;;;6.47;1.00;;;4.80;99.90;;;;;;5010114;28;20050;-74
2023/11/26 07:18:03;;;;;;;6.63;1.20;;;4.90;99.90;;;;;;5010124;28;20092;-75
2023/11/26 07:20:29;;;;;;;4.70;0.90;;;4.90;99.90;;;;;;5010314;28;20037;-75
2023/11/26 07:22:54;;;;;;;7.25;1.30;;;4.70;99.90;;;;;;5011654;28;20117;-75
2023/11/26 07:25:20;;;;;;;7.55;0.95;;;4.80;99.90;;;;;;5014392;28;20179;-74
2023/11/26 07:27:45;;;;;;;4.07;0.70;;;4.60;99.90;;;;;;5015433;28;20053;-74
2023/11/26 07:30:13;;;;;;;3.75;0.70;;;4.70;99.90;;;;;;5037909;23;20050;-79
2023/11/26 07:32:42;;;;;;;3.60;0.75;;;4.70;99.90;;;;;;4993803;28;20132;-79
2023/11/26 07:35:08;;;;;;;3.78;0.85;;;4.70;99.90;;;;;;4995276;28;20030;-79
2023/11/26 07:37:34;;;;;;;4.28;0.93;;;4.60;99.90;;;;;;4995100;28;20089;-78
2023/11/26 07:39:59;;;;;;;3.60;0.98;;;4.60;99.90;;;;;;4994896;28;20442;-78
2023/11/26 07:42:26;;;;;;;2.83;1.10;;;4.70;99.90;;;;;;4990638;28;20557;-79
2023/11/26 07:44:52;;;;;;;4.82;1.35;;;4.90;99.90;;;;;;4998592;28;20066;-78
2023/11/26 07:47:18;;;;;;;10.43;0.90;;;4.80;99.90;;;;;;4999501;28;20526;-78
2023/11/26 07:49:43;;;;;;;4.28;0.98;;;4.70;99.90;;;;;;4974949;28;20074;-78
2023/11/26 07:52:09;;;;;;;5.72;1.08;;;4.70;99.90;;;;;;4974826;28;20053;-78
2023/11/26 07:54:34;;;;;;;4.35;1.88;;;4.80;99.90;;;;;;4974893;28;20074;-78
2023/11/26 07:57:00;;;;;;;8.43;1.45;;;4.60;99.90;;;;;;4974553;28;20046;-78
2023/11/26 07:59:26;;;;;;;6.82;1.08;;;4.60;99.90;;;;;;4975366;28;20113;-78
2023/11/26 08:01:54;;;;;;;3.67;1.10;;;4.90;99.90;;;;;;4975315;28;20047;-78
2023/11/26 08:04:20;;;;;;;3.13;1.00;;;4.90;99.90;;;;;;4975058;28;20050;-78
2023/11/26 08:06:47;;;;;;;4.88;0.80;;;4.70;99.90;;;;;;4990420;28;20042;-78
2023/11/26 08:09:14;;;;;;;8.85;2.47;;;4.60;99.90;;;;;;4967120;28;20097;-79
2023/11/26 08:11:45;;;;;;;6.53;1.38;;;5.00;99.90;;;;;;4974593;28;20039;-78
2023/11/26 08:14:14;;;;;;;5.28;1.80;;;4.90;99.90;;;;;;4974677;28;20522;-78
2023/11/26 08:16:41;;;;;;;5.68;1.42;;;4.80;99.90;;;;;;5006588;28;20042;-77
2023/11/26 08:19:17;;;;;;;3.60;1.55;;;4.90;99.90;;;;;;5007369;28;20426;-78
2023/11/26 08:21:44;;;;;;;6.00;1.67;;;4.80;99.90;;;;;;4974639;28;20055;-78
2023/11/26 08:24:18;;;;;;;13.85;1.67;;;5.00;99.90;;;;;;4974444;28;20075;-78
2023/11/26 08:26:46;;;;;;;5.25;1.17;;;5.00;99.90;;;;;;4974261;28;20422;-78
2023/11/26 08:29:13;;;;;;;5.53;1.20;;;4.90;99.90;;;;;;5007113;28;20046;-78
2023/11/26 08:31:40;;;;;;;7.95;1.60;;;4.80;99.90;;;;;;4974492;28;20047;-78
2023/11/26 08:34:07;;;;;;;3.92;1.20;;;5.00;99.90;;;;;;5007408;28;20438;-78
2023/11/26 08:36:36;;;;;;;3.65;1.20;;;4.90;99.90;;;;;;4974151;28;20030;-78
2023/11/26 08:39:03;;;;;;;6.50;1.92;;;5.00;99.90;;;;;;4974482;28;20402;-79
2023/11/26 08:41:29;;;;;;;8.40;1.33;;;5.20;99.90;;;;;;4971544;28;20043;-79
2023/11/26 08:43:57;;;;;;;7.10;2.60;;;5.10;99.90;;;;;;4955434;28;20047;-79
2023/11/26 08:46:27;;;;;;;7.88;1.40;;;5.40;99.90;;;;;;4938923;29;20522;-78
2023/11/26 08:48:53;;;;;;;3.60;1.35;;;5.40;99.90;;;;;;4955073;29;20089;-77
2023/11/26 08:51:19;;;;;;;7.63;1.42;;;5.50;99.90;;;;;;4967088;28;20037;-75
2023/11/26 08:53:45;;;;;;;11.82;2.08;;;5.60;99.90;;;;;;4968113;28;20043;-77
2023/11/26 08:56:11;;;;;;;15.48;2.30;;;5.50;99.90;;;;;;4965234;28;20059;-79
2023/11/26 08:58:37;;;;;;;8.15;1.60;;;5.70;99.90;;;;;;4974266;28;20043;-77
2023/11/26 09:01:04;;;;;;;8.55;1.52;;;5.90;99.90;;;;;;4971030;28;20072;-78
2023/11/26 09:03:29;;;;;;;3.50;1.40;;;5.80;99.90;;;;;;4968370;28;20061;-78
2023/11/26 09:05:55;;;;;;;5.55;3.08;;;5.80;99.90;;;;;;4951570;28;20486;-78
2023/11/26 09:08:21;;;;;;;7.00;1.90;;;6.00;99.90;;;;;;4974977;28;20046;-77
2023/11/26 09:10:48;;;;;;;12.95;2.97;;;5.90;99.90;;;;;;4970704;28;20063;-77
2023/11/26 09:13:13;;;;;;;8.98;1.90;;;6.10;99.90;;;;;;4950825;28;20035;-77
2023/11/26 09:15:41;;;;;;;5.25;1.98;;;6.00;99.90;;;;;;4973083;28;20089;-78
2023/11/26 09:18:07;;;;;;;3.28;1.20;;;6.00;99.90;;;;;;4957758;28;20034;-76
2023/11/26 09:20:33;;;;;;;5.05;1.45;;;6.20;99.90;;;;;;4960619;28;20042;-75
2023/11/26 09:22:59;;;;;;;8.40;1.75;;;6.10;99.90;;;;;;4970712;28;20424;-75
2023/11/26 09:25:26;;;;;;;8.38;1.88;;;6.10;99.90;;;;;;4970324;28;20045;-75
2023/11/26 09:27:53;;;;;;;4.88;1.80;;;6.20;99.90;;;;;;4953620;28;20050;-76
2023/11/26 09:30:18;;;;;;;6.07;1.27;;;6.10;99.90;;;;;;4952178;28;20482;-78
2023/11/26 09:32:44;;;;;;;3.75;1.17;;;6.10;99.90;;;;;;4966943;28;20039;-77
2023/11/26 09:35:10;;;;;;;3.13;1.00;;;6.10;99.90;;;;;;4951168;28;20502;-76
2023/11/26 09:37:35;;;;;;;3.05;1.10;;;6.10;99.90;;;;;;4969859;28;20074;-76
2023/11/26 09:40:02;;;;;;;4.13;0.98;;;6.00;99.90;;;;;;4964635;28;20082;-77
2023/11/26 09:42:27;;;;;;;9.75;1.30;;;6.20;99.90;;;;;;4956377;28;20060;-76
2023/11/26 09:44:53;;;;;;;3.22;1.17;;;6.10;99.90;;;;;;4969461;28;20436;-77
2023/11/26 09:47:19;;;;;;;4.50;1.10;;;6.20;99.90;;;;;;4969243;28;20038;-78
2023/11/26 09:49:45;;;;;;;4.03;1.83;;;6.40;99.90;;;;;;4970379;28;20422;-77
2023/11/26 09:52:11;;;;;;;5.25;1.42;;;6.20;99.90;;;;;;4947100;28;20043;-77
2023/11/26 09:54:37;;;;;;;7.05;1.48;;;6.30;99.90;;;;;;4969728;28;20545;-77
2023/11/26 09:57:03;;;;;;;5.78;1.40;;;6.50;99.90;;;;;;4965499;28;20514;-78
2023/11/26 09:59:31;;;;;;;3.72;1.25;;;6.30;99.90;;;;;;4956219;28;20050;-77
2023/11/26 10:02:17;;;;;;;5.70;2.03;;;6.40;99.90;;;;;;4970969;28;20043;-77
2023/11/26 10:04:50;;;;;;;5.18;1.30;;;6.20;99.90;;;;;;4968503;28;20055;-76
2023/11/26 10:07:17;;;;;;;4.55;1.30;;;6.20;99.90;;;;;;4963696;28;20047;-78
2023/11/26 10:10:04;;;;;;;4.13;1.40;;;6.40;99.90;;;;;;4971925;28;20034;-77
2023/11/26 10:12:30;;;;;;;4.53;1.30;;;6.30;99.90;;;;;;4953031;28;20085;-79
2023/11/26 10:15:06;;;;;;;4.38;1.88;;;6.50;99.90;;;;;;4955734;28;20089;-80
2023/11/26 10:17:32;;;;;;;8.20;1.75;;;6.50;99.90;;;;;;4963244;28;20499;-77
2023/11/26 10:20:16;;;;;;;8.45;1.70;;;6.40;99.90;;;;;;4954622;28;20035;-77
2023/11/26 10:22:47;;;;;;;3.15;1.52;;;6.40;99.90;;;;;;4956271;28;20043;-78
2023/11/26 10:25:13;;;;;;;9.18;1.98;;;6.50;99.90;;;;;;4955718;28;20039;-77
2023/11/26 10:27:39;;;;;;;9.50;1.70;;;6.40;99.90;;;;;;4955181;28;20074;-77
2023/11/26 10:30:07;;;;;;;6.13;1.73;;;6.60;99.90;;;;;;4972682;28;20118;-75
2023/11/26 10:32:33;;;;;;;7.93;1.67;;;6.60;99.90;;;;;;4973949;28;20038;-77
2023/11/26 10:34:59;;;;;;;4.43;1.50;;;6.50;99.90;;;;;;4990568;28;20522;-77
2023/11/26 10:37:25;;;;;;;5.93;1.83;;;6.70;99.90;;;;;;4991329;28;20070;-76
2023/11/26 10:39:55;;;;;;;8.13;1.63;;;6.70;99.90;;;;;;4991224;28;20050;-77
2023/11/26 10:42:22;;;;;;;5.88;1.67;;;6.60;99.90;;;;;;4988488;28;20116;-77
2023/11/26 10:44:51;;;;;;;6.85;1.33;;;6.80;99.90;;;;;;4979460;28;20050;-76
2023/11/26 10:47:21;;;;;;;10.65;1.90;;;6.80;99.90;;;;;;4971427;28;20046;-77
2023/11/26 10:49:51;;;;;;;8.10;1.90;;;6.70;99.90;;;;;;5004427;28;20061;-77
2023/11/26 10:52:53;;;;;;;3.63;1.20;;;6.70;99.90;;;;;;4982933;28;20080;-77
2023/11/26 10:55:29;;;;;;;4.65;1.33;;;6.70;99.90;;;;;;4970114;28;20084;-77
2023/11/26 10:58:05;;;;;;;4.95;1.10;;;6.70;99.90;;;;;;4965007;28;20030;-77
2023/11/26 11:00:33;;;;;;;4.65;0.95;;;6.70;99.90;;;;;;4988035;28;20043;-77
2023/11/26 11:03:01;;;;;;;5.68;1.08;;;6.80;99.90;;;;;;4976957;28;20038;-75
2023/11/26 11:05:29;;;;;;;5.90;1.17;;;6.80;99.90;;;;;;4975385;28;20038;-76
2023/11/26 11:07:55;;;;;;;4.07;1.00;;;6.80;99.90;;;;;;4963087;28;20566;-77
2023/11/26 11:10:35;;;;;;;3.45;1.20;;;6.90;99.90;;;;;;4967987;28;20078;-77
2023/11/26 11:13:10;;;;;;;5.10;1.92;;;6.80;99.90;;;;;;4964653;28;20035;-77
2023/11/26 11:15:39;;;;;;;7.47;1.33;;;6.90;99.90;;;;;;4981084;28;20050;-76
2023/11/26 11:18:27;;;;;;;5.93;0.90;;;6.80;99.90;;;;;;4962244;28;20075;-76
2023/11/26 11:21:16;;;;;;;7.80;1.08;;;6.90;99.90;;;;;;4973230;28;20074;-76
2023/11/26 11:23:41;;;;;;;8.60;1.60;;;6.90;99.90;;;;;;4955917;29;20126;-78
2023/11/26 11:26:12;;;;;;;6.35;1.20;;;6.90;99.90;;;;;;4971408;28;20089;-78
2023/11/26 11:28:42;;;;;;;15.93;1.65;;;6.90;99.90;;;;;;4959991;28;20038;-77
2023/11/26 11:31:12;;;;;;;6.13;2.05;;;6.80;99.90;;;;;;4962485;28;20050;-77
2023/11/26 11:33:56;;;;;;;8.65;1.70;;;6.90;99.90;;;;;;4946735;29;20039;-77
2023/11/26 11:36:41;;;;;;;5.65;1.23;;;6.60;99.90;;;;;;4971284;28;20046;-77
2023/11/26 11:39:07;;;;;;;8.40;1.20;;;6.80;99.90;;;;;;4971908;28;20058;-78
2023/11/26 11:42:04;;;;;;;4.68;1.38;;;6.70;99.90;;;;;;4974457;28;20070;-77
2023/11/26 11:44:34;;;;;;;4.47;1.00;;;6.80;99.90;;;;;;4976543;28;20115;-78
2023/11/26 11:47:03;;;;;;;8.05;1.02;;;6.90;99.90;;;;;;4958632;28;20049;-77
2023/11/26 11:49:53;;;;;;;4.03;1.13;;;6.70;99.90;;;;;;4971719;28;20046;-79
2023/11/26 11:52:19;;;;;;;6.53;1.73;;;6.70;99.90;;;;;;4958815;28;20422;-77
2023/11/26 11:55:04;;;;;;;5.97;1.30;;;6.70;99.90;;;;;;4972537;28;20046;-78
2023/11/26 11:57:44;;;;;;;7.75;1.30;;;6.60;99.90;;;;;;4976471;28;20038;-78
2023/11/26 12:00:11;;;;;;;4.97;1.20;;;6.70;99.90;;;;;;4973173;28;20050;-77
2023/11/26 12:02:39;;;;;;;6.60;1.98;;;6.90;99.90;;;;;;4943691;28;20039;-77
2023/11/26 12:05:24;;;;;;;6.22;1.58;;;6.70;99.90;;;;;;4973719;28;20043;-76
2023/11/26 12:07:51;;;;;;;4.97;1.40;;;6.80;99.90;;;;;;4942133;28;20035;-76
2023/11/26 12:10:24;;;;;;;5.53;1.13;;;6.70;99.90;;;;;;4961101;28;20414;-76
2023/11/26 12:13:06;;;;;;;3.55;0.90;;;6.80;99.90;;;;;;4970404;28;20030;-76
2023/11/26 12:15:34;;;;;;;5.00;0.90;;;6.80;99.90;;;;;;4972112;28;20129;-76
2023/11/26 12:18:00;;;;;;;4.30;0.90;;;6.70;99.90;;;;;;4974168;28;20140;-77
2023/11/26 12:20:27;;;;;;;3.83;1.10;;;6.70;99.90;;;;;;4974294;28;20671;-77
2023/11/26 12:22:53;;;;;;;3.90;1.05;;;6.70;99.90;;;;;;4974325;28;20401;-76
2023/11/26 12:25:21;;;;;;;5.72;0.93;;;6.60;99.90;;;;;;4973815;28;20038;-78
2023/11/26 12:28:07;;;;;;;5.65;0.88;;;6.80;99.90;;;;;;4974561;28;20051;-77
2023/11/26 12:30:36;;;;;;;2.30;1.08;;;6.60;99.90;;;;;;4973894;28;20046;-77
2023/11/26 12:33:03;;;;;;;3.28;0.93;;;6.80;99.90;;;;;;5006909;28;20402;-78
2023/11/26 12:35:30;;;;;;;3.78;0.68;;;6.70;99.90;;;;;;5006548;28;20118;-78
2023/11/26 12:37:58;;;;;;;5.88;1.45;;;6.80;99.90;;;;;;5007142;28;20039;-77
2023/11/26 12:40:24;;;;;;;11.05;1.05;;;6.80;99.90;;;;;;5015667;28;20066;-78
2023/11/26 12:42:50;;;;;;;1.80;0.60;;;6.60;99.90;;;;;;4991058;28;20043;-77
2023/11/26 12:45:19;;;;;;;3.60;0.80;;;6.60;99.90;;;;;;5023676;28;20042;-77
2023/11/26 12:47:53;;;;;;;2.15;0.88;;;6.60;99.90;;;;;;5025127;28;20070;-77
2023/11/26 12:50:20;;;;;;;2.70;0.68;;;6.70;99.90;;;;;;5026614;28;20027;-77
2023/11/26 12:52:47;;;;;;;2.03;0.80;;;6.60;99.90;;;;;;4985536;28;20039;-78
2023/11/26 12:55:14;;;;;;;6.30;0.90;;;6.60;99.90;;;;;;5011574;28;20034;-78
2023/11/26 12:57:40;;;;;;;2.55;0.98;;;6.60;99.90;;;;;;4977532;28;20495;-77
2023/11/26 13:00:10;;;;;;;4.70;1.08;;;6.60;99.90;;;;;;4977909;28;20151;-77
2023/11/26 13:02:37;;;;;;;2.58;0.70;;;6.50;99.90;;;;;;4977569;28;20169;-77